sim
Sign-in with your pilot id or email,
or register
Callsign
Passwort

Schedule Details

Flight Number: DLH1681
Departure: Budapest Ferenc Liszt International Airport (LHBP) at 19:45
Arrival: Munich Airport (EDDM) at 21:00
Route: Lufthansa Passenger Schedule. Enter filed route here before submitting Pirep.

Weather Information
Getting current METAR information for LHBP 262200Z 30009KT CAVOK 10/07 Q1000 NOSIG
Getting current METAR information for EDDM 262150Z 23016KT 9999 OVC022 07/03 Q1002 NOSIG

Schedule Frequency

Route Map